sensor_id;sensor_type;location;lat;lon;timestamp;pressure;altitude;pressure_sealevel;temperature;humidity
48404;BME280;34202;52.536;6.042;2023-07-09T00:02:32;101815.88;;;24.77;51.99
48404;BME280;34202;52.536;6.042;2023-07-09T00:07:33;101813.31;;;24.65;52.82
48404;BME280;34202;52.536;6.042;2023-07-09T00:12:33;101811.23;;;24.53;53.36
48404;BME280;34202;52.536;6.042;2023-07-09T00:17:34;101812.62;;;24.44;53.86
48404;BME280;34202;52.536;6.042;2023-07-09T00:22:34;101807.82;;;24.33;54.30
48404;BME280;34202;52.536;6.042;2023-07-09T00:27:35;101805.20;;;24.22;54.54
48404;BME280;34202;52.536;6.042;2023-07-09T00:32:35;101796.83;;;24.13;54.85
48404;BME280;34202;52.536;6.042;2023-07-09T00:37:44;101801.30;;;24.01;54.99
48404;BME280;34202;52.536;6.042;2023-07-09T00:42:54;101799.50;;;23.92;55.38
48404;BME280;34202;52.536;6.042;2023-07-09T00:47:58;101799.08;;;23.83;55.81
48404;BME280;34202;52.536;6.042;2023-07-09T00:53:04;101799.13;;;23.76;56.04
48404;BME280;34202;52.536;6.042;2023-07-09T00:58:11;101802.86;;;23.70;56.12
48404;BME280;34202;52.536;6.042;2023-07-09T01:03:21;101800.77;;;23.63;56.59
48404;BME280;34202;52.536;6.042;2023-07-09T01:08:24;101802.09;;;23.55;56.96
48404;BME280;34202;52.536;6.042;2023-07-09T01:13:26;101805.66;;;23.49;57.12
48404;BME280;34202;52.536;6.042;2023-07-09T01:18:27;101800.35;;;23.43;57.33
48404;BME280;34202;52.536;6.042;2023-07-09T01:23:28;101804.63;;;23.37;57.57
48404;BME280;34202;52.536;6.042;2023-07-09T01:28:28;101803.57;;;23.31;57.80
48404;BME280;34202;52.536;6.042;2023-07-09T01:33:29;101803.65;;;23.23;58.21
48404;BME280;34202;52.536;6.042;2023-07-09T01:38:29;101801.33;;;23.17;58.54
48404;BME280;34202;52.536;6.042;2023-07-09T01:43:30;101803.27;;;23.12;58.86
48404;BME280;34202;52.536;6.042;2023-07-09T01:48:31;101804.17;;;23.06;59.02
48404;BME280;34202;52.536;6.042;2023-07-09T01:53:33;101804.10;;;23.01;59.39
48404;BME280;34202;52.536;6.042;2023-07-09T01:58:34;101802.11;;;22.96;59.77
48404;BME280;34202;52.536;6.042;2023-07-09T02:03:34;101804.83;;;22.89;60.19
48404;BME280;34202;52.536;6.042;2023-07-09T02:08:35;101804.85;;;22.81;60.39
48404;BME280;34202;52.536;6.042;2023-07-09T02:13:36;101804.88;;;22.74;60.45
48404;BME280;34202;52.536;6.042;2023-07-09T02:18:36;101813.20;;;22.69;60.48
48404;BME280;34202;52.536;6.042;2023-07-09T02:23:36;101816.77;;;22.62;60.86
48404;BME280;34202;52.536;6.042;2023-07-09T02:28:37;101818.19;;;22.55;61.20
48404;BME280;34202;52.536;6.042;2023-07-09T02:33:37;101819.26;;;22.49;61.36
48404;BME280;34202;52.536;6.042;2023-07-09T02:38:37;101819.92;;;22.44;61.25
48404;BME280;34202;52.536;6.042;2023-07-09T02:43:38;101819.85;;;22.40;61.73
48404;BME280;34202;52.536;6.042;2023-07-09T02:48:38;101824.39;;;22.37;62.32
48404;BME280;34202;52.536;6.042;2023-07-09T02:53:38;101820.23;;;22.32;62.69
48404;BME280;34202;52.536;6.042;2023-07-09T02:58:39;101821.72;;;22.30;62.87
48404;BME280;34202;52.536;6.042;2023-07-09T03:03:39;101817.23;;;22.26;63.01
48404;BME280;34202;52.536;6.042;2023-07-09T03:08:40;101815.50;;;22.23;63.21
48404;BME280;34202;52.536;6.042;2023-07-09T03:13:40;101813.08;;;22.20;63.30
48404;BME280;34202;52.536;6.042;2023-07-09T03:18:41;101812.95;;;22.18;63.54
48404;BME280;34202;52.536;6.042;2023-07-09T03:23:41;101809.46;;;22.16;63.66
48404;BME280;34202;52.536;6.042;2023-07-09T03:28:42;101819.83;;;22.14;63.40
48404;BME280;34202;52.536;6.042;2023-07-09T03:33:42;101827.85;;;22.12;63.55
48404;BME280;34202;52.536;6.042;2023-07-09T03:38:43;101830.75;;;22.09;63.59
48404;BME280;34202;52.536;6.042;2023-07-09T03:43:43;101827.05;;;22.08;64.02
48404;BME280;34202;52.536;6.042;2023-07-09T03:48:43;101823.38;;;22.06;64.45
48404;BME280;34202;52.536;6.042;2023-07-09T03:53:44;101825.92;;;22.04;64.53
48404;BME280;34202;52.536;6.042;2023-07-09T03:58:44;101833.61;;;22.01;64.76
48404;BME280;34202;52.536;6.042;2023-07-09T04:03:46;101829.22;;;21.99;64.89
48404;BME280;34202;52.536;6.042;2023-07-09T04:08:46;101832.26;;;21.98;65.11
48404;BME280;34202;52.536;6.042;2023-07-09T04:13:47;101837.95;;;21.97;65.56
48404;BME280;34202;52.536;6.042;2023-07-09T04:18:47;101840.80;;;21.97;65.77
48404;BME280;34202;52.536;6.042;2023-07-09T04:23:47;101842.73;;;21.98;66.38
48404;BME280;34202;52.536;6.042;2023-07-09T04:28:48;101843.22;;;22.00;66.86
48404;BME280;34202;52.536;6.042;2023-07-09T04:33:48;101842.82;;;22.01;66.99
48404;BME280;34202;52.536;6.042;2023-07-09T04:38:48;101844.54;;;22.03;67.32
48404;BME280;34202;52.536;6.042;2023-07-09T04:43:49;101846.25;;;22.06;67.24
48404;BME280;34202;52.536;6.042;2023-07-09T04:48:49;101839.48;;;22.07;67.54
48404;BME280;34202;52.536;6.042;2023-07-09T04:53:50;101844.56;;;22.09;67.60
48404;BME280;34202;52.536;6.042;2023-07-09T04:58:51;101844.85;;;22.12;68.20
48404;BME280;34202;52.536;6.042;2023-07-09T05:03:52;101843.52;;;22.16;68.50
48404;BME280;34202;52.536;6.042;2023-07-09T05:08:52;101845.91;;;22.19;68.55
48404;BME280;34202;52.536;6.042;2023-07-09T05:13:53;101846.17;;;22.23;68.65
48404;BME280;34202;52.536;6.042;2023-07-09T05:18:53;101847.14;;;22.28;69.37
48404;BME280;34202;52.536;6.042;2023-07-09T05:23:54;101849.16;;;22.31;69.69
48404;BME280;34202;52.536;6.042;2023-07-09T05:28:54;101849.02;;;22.37;69.98
48404;BME280;34202;52.536;6.042;2023-07-09T05:33:56;101849.04;;;22.44;69.87
48404;BME280;34202;52.536;6.042;2023-07-09T05:38:57;101847.77;;;22.51;70.13
48404;BME280;34202;52.536;6.042;2023-07-09T05:43:57;101853.90;;;22.60;70.37
48404;BME280;34202;52.536;6.042;2023-07-09T05:48:58;101858.55;;;22.71;70.63
48404;BME280;34202;52.536;6.042;2023-07-09T05:53:58;101859.88;;;22.81;70.91
48404;BME280;34202;52.536;6.042;2023-07-09T05:58:59;101868.75;;;22.94;71.00
48404;BME280;34202;52.536;6.042;2023-07-09T06:03:59;101863.75;;;23.08;71.06
48404;BME280;34202;52.536;6.042;2023-07-09T06:09:00;101866.38;;;23.21;71.19
48404;BME280;34202;52.536;6.042;2023-07-09T06:14:00;101866.27;;;23.37;71.27
48404;BME280;34202;52.536;6.042;2023-07-09T06:19:01;101870.39;;;23.53;71.20
48404;BME280;34202;52.536;6.042;2023-07-09T06:24:01;101876.61;;;23.70;71.25
48404;BME280;34202;52.536;6.042;2023-07-09T06:29:02;101876.89;;;23.90;71.27
48404;BME280;34202;52.536;6.042;2023-07-09T06:34:03;101881.36;;;24.10;70.85
48404;BME280;34202;52.536;6.042;2023-07-09T06:39:03;101887.00;;;24.33;71.00
48404;BME280;34202;52.536;6.042;2023-07-09T06:44:07;101892.83;;;24.56;70.76
48404;BME280;34202;52.536;6.042;2023-07-09T06:49:08;101889.52;;;24.79;70.92
48404;BME280;34202;52.536;6.042;2023-07-09T06:54:08;101896.70;;;25.02;70.40
48404;BME280;34202;52.536;6.042;2023-07-09T06:59:09;101894.81;;;25.24;69.90
48404;BME280;34202;52.536;6.042;2023-07-09T07:04:10;101897.45;;;25.48;69.46
48404;BME280;34202;52.536;6.042;2023-07-09T07:09:10;101902.39;;;25.72;68.69
48404;BME280;34202;52.536;6.042;2023-07-09T07:14:11;101905.14;;;25.97;68.14
48404;BME280;34202;52.536;6.042;2023-07-09T07:19:11;101902.66;;;26.23;68.23
48404;BME280;34202;52.536;6.042;2023-07-09T07:24:12;101894.02;;;26.49;67.63
48404;BME280;34202;52.536;6.042;2023-07-09T07:29:12;101891.62;;;26.76;67.23
48404;BME280;34202;52.536;6.042;2023-07-09T07:34:12;101888.98;;;26.99;65.72
48404;BME280;34202;52.536;6.042;2023-07-09T07:39:13;101888.80;;;27.23;65.16
48404;BME280;34202;52.536;6.042;2023-07-09T07:44:15;101896.27;;;27.50;64.94
48404;BME280;34202;52.536;6.042;2023-07-09T07:49:16;101896.98;;;27.77;64.06
48404;BME280;34202;52.536;6.042;2023-07-09T07:54:16;101898.81;;;28.05;63.55
48404;BME280;34202;52.536;6.042;2023-07-09T07:59:18;101896.76;;;28.35;63.28
48404;BME280;34202;52.536;6.042;2023-07-09T08:04:18;101893.48;;;28.64;62.39
48404;BME280;34202;52.536;6.042;2023-07-09T08:09:19;101894.67;;;28.92;61.83
48404;BME280;34202;52.536;6.042;2023-07-09T08:14:19;101891.70;;;29.24;61.42
48404;BME280;34202;52.536;6.042;2023-07-09T08:19:20;101892.84;;;29.55;60.63
48404;BME280;34202;52.536;6.042;2023-07-09T08:24:20;101895.33;;;29.84;59.95
48404;BME280;34202;52.536;6.042;2023-07-09T08:29:20;101894.21;;;30.16;59.20
48404;BME280;34202;52.536;6.042;2023-07-09T08:34:21;101901.35;;;30.50;59.07
48404;BME280;34202;52.536;6.042;2023-07-09T08:39:21;101903.50;;;30.85;58.31
48404;BME280;34202;52.536;6.042;2023-07-09T08:49:45;101908.17;;;31.43;57.15
48404;BME280;34202;52.536;6.042;2023-07-09T08:54:47;101909.48;;;31.67;56.48
48404;BME280;34202;52.536;6.042;2023-07-09T08:59:54;101907.95;;;31.87;55.81
48404;BME280;34202;52.536;6.042;2023-07-09T09:04:57;101906.70;;;32.07;55.24
48404;BME280;34202;52.536;6.042;2023-07-09T09:10:01;101908.48;;;32.23;54.73
48404;BME280;34202;52.536;6.042;2023-07-09T09:15:11;101903.27;;;32.36;53.56
48404;BME280;34202;52.536;6.042;2023-07-09T09:20:18;101893.98;;;32.45;52.71
48404;BME280;34202;52.536;6.042;2023-07-09T09:25:26;101892.93;;;32.27;51.58
48404;BME280;34202;52.536;6.042;2023-07-09T09:30:28;101896.69;;;32.16;51.81
48404;BME280;34202;52.536;6.042;2023-07-09T09:40:34;101901.44;;;31.91;50.71
48404;BME280;34202;52.536;6.042;2023-07-09T09:45:37;101896.83;;;31.79;51.19
48404;BME280;34202;52.536;6.042;2023-07-09T09:50:40;101893.71;;;31.80;51.31
48404;BME280;34202;52.536;6.042;2023-07-09T09:55:40;101884.45;;;31.75;51.51
48404;BME280;34202;52.536;6.042;2023-07-09T10:00:50;101879.84;;;31.80;51.34
48404;BME280;34202;52.536;6.042;2023-07-09T10:05:58;101878.41;;;31.74;51.17
48404;BME280;34202;52.536;6.042;2023-07-09T10:11:18;101884.21;;;31.85;51.67
48404;BME280;34202;52.536;6.042;2023-07-09T10:16:38;101880.46;;;32.00;51.81
48404;BME280;34202;52.536;6.042;2023-07-09T10:21:57;101877.20;;;31.95;51.43
48404;BME280;34202;52.536;6.042;2023-07-09T10:42:54;101867.34;;;32.29;50.69
48404;BME280;34202;52.536;6.042;2023-07-09T10:48:37;101854.74;;;32.37;50.56
48404;BME280;34202;52.536;6.042;2023-07-09T10:53:45;101842.02;;;32.54;49.70
48404;BME280;34202;52.536;6.042;2023-07-09T10:59:00;101843.16;;;32.59;49.44
48404;BME280;34202;52.536;6.042;2023-07-09T11:04:11;101844.52;;;32.70;49.15
48404;BME280;34202;52.536;6.042;2023-07-09T11:09:24;101841.26;;;32.85;49.02
48404;BME280;34202;52.536;6.042;2023-07-09T11:14:36;101833.77;;;33.02;49.08
48404;BME280;34202;52.536;6.042;2023-07-09T11:19:42;101825.34;;;33.29;49.14
48404;BME280;34202;52.536;6.042;2023-07-09T11:25:11;101827.07;;;33.54;48.56
48404;BME280;34202;52.536;6.042;2023-07-09T11:30:27;101839.27;;;33.69;47.64
48404;BME280;34202;52.536;6.042;2023-07-09T11:35:44;101844.00;;;33.81;47.43
48404;BME280;34202;52.536;6.042;2023-07-09T11:40:53;101834.63;;;34.02;47.72
48404;BME280;34202;52.536;6.042;2023-07-09T11:45:56;101818.48;;;34.20;46.82
48404;BME280;34202;52.536;6.042;2023-07-09T11:51:00;101812.63;;;34.34;46.75
48404;BME280;34202;52.536;6.042;2023-07-09T11:56:03;101807.77;;;34.66;46.07
48404;BME280;34202;52.536;6.042;2023-07-09T12:01:14;101801.17;;;35.07;45.20
48404;BME280;34202;52.536;6.042;2023-07-09T12:06:23;101789.42;;;35.49;43.31
48404;BME280;34202;52.536;6.042;2023-07-09T12:11:27;101784.80;;;35.89;42.78
48404;BME280;34202;52.536;6.042;2023-07-09T12:16:30;101783.56;;;36.11;40.59
48404;BME280;34202;52.536;6.042;2023-07-09T12:21:33;101792.17;;;36.27;40.60
48404;BME280;34202;52.536;6.042;2023-07-09T12:26:34;101788.82;;;36.57;40.36
48404;BME280;34202;52.536;6.042;2023-07-09T12:31:35;101783.84;;;36.83;40.02
48404;BME280;34202;52.536;6.042;2023-07-09T12:36:36;101766.64;;;37.02;39.48
48404;BME280;34202;52.536;6.042;2023-07-09T12:41:42;101767.35;;;37.17;39.10
48404;BME280;34202;52.536;6.042;2023-07-09T12:46:45;101780.64;;;37.16;38.09
48404;BME280;34202;52.536;6.042;2023-07-09T12:51:46;101777.18;;;37.04;37.89
48404;BME280;34202;52.536;6.042;2023-07-09T12:56:47;101797.30;;;36.98;38.33
48404;BME280;34202;52.536;6.042;2023-07-09T13:06:55;101852.84;;;36.29;41.45
48404;BME280;34202;52.536;6.042;2023-07-09T13:12:03;101842.41;;;35.27;43.18
48404;BME280;34202;52.536;6.042;2023-07-09T13:17:05;101818.93;;;34.69;46.77
48404;BME280;34202;52.536;6.042;2023-07-09T13:22:07;101800.96;;;34.45;49.41
48404;BME280;34202;52.536;6.042;2023-07-09T13:27:14;101791.67;;;34.23;49.71
48404;BME280;34202;52.536;6.042;2023-07-09T13:32:16;101784.27;;;33.90;48.77
48404;BME280;34202;52.536;6.042;2023-07-09T13:37:16;101750.58;;;33.49;46.42
48404;BME280;34202;52.536;6.042;2023-07-09T13:42:17;101738.05;;;33.21;44.42
48404;BME280;34202;52.536;6.042;2023-07-09T13:47:18;101715.86;;;33.11;43.67
48404;BME280;34202;52.536;6.042;2023-07-09T13:52:21;101717.63;;;33.05;43.22
48404;BME280;34202;52.536;6.042;2023-07-09T13:57:23;101709.55;;;33.02;43.70
48404;BME280;34202;52.536;6.042;2023-07-09T14:02:28;101723.33;;;33.05;44.45
48404;BME280;34202;52.536;6.042;2023-07-09T14:07:38;101723.70;;;32.86;44.11
48404;BME280;34202;52.536;6.042;2023-07-09T14:12:42;101718.02;;;32.32;44.53
48404;BME280;34202;52.536;6.042;2023-07-09T14:17:44;101863.08;;;31.75;45.67
48404;BME280;34202;52.536;6.042;2023-07-09T14:22:45;101937.20;;;31.22;47.47
48404;BME280;34202;52.536;6.042;2023-07-09T14:27:51;101954.08;;;30.69;48.54
48404;BME280;34202;52.536;6.042;2023-07-09T14:32:51;101941.67;;;30.27;50.38
48404;BME280;34202;52.536;6.042;2023-07-09T14:37:53;101909.43;;;29.92;51.21
48404;BME280;34202;52.536;6.042;2023-07-09T14:42:54;101882.42;;;29.39;52.24
48404;BME280;34202;52.536;6.042;2023-07-09T14:47:55;101859.05;;;29.02;53.31
48404;BME280;34202;52.536;6.042;2023-07-09T14:52:55;101835.77;;;28.27;53.96
48404;BME280;34202;52.536;6.042;2023-07-09T14:57:56;101815.68;;;27.68;55.61
48404;BME280;34202;52.536;6.042;2023-07-09T15:02:59;101798.96;;;27.29;57.51
48404;BME280;34202;52.536;6.042;2023-07-09T15:08:00;101803.45;;;26.72;59.19
48404;BME280;34202;52.536;6.042;2023-07-09T15:13:01;101801.58;;;26.45;60.64
48404;BME280;34202;52.536;6.042;2023-07-09T15:18:10;101813.11;;;26.31;60.95
48404;BME280;34202;52.536;6.042;2023-07-09T15:23:11;101830.39;;;26.11;61.11
48404;BME280;34202;52.536;6.042;2023-07-09T15:28:11;101818.17;;;26.00;61.80
48404;BME280;34202;52.536;6.042;2023-07-09T15:33:17;101833.80;;;25.58;61.99
48404;BME280;34202;52.536;6.042;2023-07-09T15:43:18;101856.66;;;24.91;65.03
48404;BME280;34202;52.536;6.042;2023-07-09T15:48:33;101882.05;;;24.63;65.98
48404;BME280;34202;52.536;6.042;2023-07-09T15:53:34;102149.59;;;24.62;68.08
48404;BME280;34202;52.536;6.042;2023-07-09T15:58:39;102119.92;;;24.55;68.95
48404;BME280;34202;52.536;6.042;2023-07-09T16:03:49;102014.31;;;24.19;69.90
48404;BME280;34202;52.536;6.042;2023-07-09T16:08:49;101937.80;;;23.74;71.09
48404;BME280;34202;52.536;6.042;2023-07-09T16:13:52;101924.95;;;23.40;72.66
48404;BME280;34202;52.536;6.042;2023-07-09T16:18:52;101889.89;;;23.06;74.46
48404;BME280;34202;52.536;6.042;2023-07-09T16:23:54;101869.58;;;22.64;76.27
48404;BME280;34202;52.536;6.042;2023-07-09T16:28:55;101878.33;;;22.36;77.99
48404;BME280;34202;52.536;6.042;2023-07-09T16:33:56;101880.89;;;22.25;79.49
48404;BME280;34202;52.536;6.042;2023-07-09T16:38:56;101904.79;;;22.34;80.82
48404;BME280;34202;52.536;6.042;2023-07-09T16:43:56;101917.67;;;22.43;81.38
48404;BME280;34202;52.536;6.042;2023-07-09T16:48:57;101930.93;;;22.52;81.51
48404;BME280;34202;52.536;6.042;2023-07-09T16:53:59;101958.15;;;22.56;81.34
48404;BME280;34202;52.536;6.042;2023-07-09T16:59:03;101939.79;;;22.59;81.25
48404;BME280;34202;52.536;6.042;2023-07-09T17:04:21;101923.89;;;22.56;80.95
48404;BME280;34202;52.536;6.042;2023-07-09T17:09:22;101925.13;;;22.57;80.87
48404;BME280;34202;52.536;6.042;2023-07-09T17:14:23;101920.75;;;22.62;80.97
48404;BME280;34202;52.536;6.042;2023-07-09T17:19:24;101906.11;;;22.45;80.58
48404;BME280;34202;52.536;6.042;2023-07-09T17:24:26;101901.40;;;22.19;81.21
48404;BME280;34202;52.536;6.042;2023-07-09T17:29:26;101926.66;;;22.02;82.37
48404;BME280;34202;52.536;6.042;2023-07-09T17:34:27;101941.70;;;21.88;83.50
48404;BME280;34202;52.536;6.042;2023-07-09T17:39:27;101957.98;;;21.88;84.43
48404;BME280;34202;52.536;6.042;2023-07-09T17:44:33;101973.57;;;21.96;84.91
48404;BME280;34202;52.536;6.042;2023-07-09T17:49:34;101990.46;;;22.01;85.24
48404;BME280;34202;52.536;6.042;2023-07-09T17:54:34;101984.92;;;22.03;85.79
48404;BME280;34202;52.536;6.042;2023-07-09T17:59:36;101981.75;;;22.03;86.21
48404;BME280;34202;52.536;6.042;2023-07-09T18:04:37;101987.52;;;21.98;86.69
48404;BME280;34202;52.536;6.042;2023-07-09T18:09:37;101982.79;;;21.96;87.29
48404;BME280;34202;52.536;6.042;2023-07-09T18:14:41;101996.05;;;21.97;87.69
48404;BME280;34202;52.536;6.042;2023-07-09T18:19:42;101982.68;;;22.00;87.92
48404;BME280;34202;52.536;6.042;2023-07-09T18:24:44;101979.79;;;22.03;88.04
48404;BME280;34202;52.536;6.042;2023-07-09T18:29:46;101989.14;;;22.05;88.14
48404;BME280;34202;52.536;6.042;2023-07-09T18:34:47;101991.39;;;22.08;88.27
48404;BME280;34202;52.536;6.042;2023-07-09T18:39:48;101998.25;;;22.10;88.61
48404;BME280;34202;52.536;6.042;2023-07-09T18:44:49;101992.66;;;22.06;88.83
48404;BME280;34202;52.536;6.042;2023-07-09T18:49:49;101987.02;;;22.11;89.28
48404;BME280;34202;52.536;6.042;2023-07-09T18:54:52;101985.71;;;22.15;89.53
48404;BME280;34202;52.536;6.042;2023-07-09T18:59:52;101978.63;;;22.15;89.70
48404;BME280;34202;52.536;6.042;2023-07-09T19:04:55;101969.57;;;22.16;89.79
48404;BME280;34202;52.536;6.042;2023-07-09T19:09:57;101974.15;;;22.17;89.63
48404;BME280;34202;52.536;6.042;2023-07-09T19:14:59;101978.38;;;22.18;89.68
48404;BME280;34202;52.536;6.042;2023-07-09T19:20:00;101973.67;;;22.15;89.69
48404;BME280;34202;52.536;6.042;2023-07-09T19:25:00;101979.27;;;22.10;89.76
48404;BME280;34202;52.536;6.042;2023-07-09T19:30:00;101980.78;;;22.06;90.18
48404;BME280;34202;52.536;6.042;2023-07-09T19:35:01;101983.02;;;22.01;90.32
48404;BME280;34202;52.536;6.042;2023-07-09T19:40:34;101985.83;;;21.95;90.68
48404;BME280;34202;52.536;6.042;2023-07-09T19:45:36;101985.52;;;21.85;90.74
48404;BME280;34202;52.536;6.042;2023-07-09T19:50:39;101982.87;;;21.76;90.80
48404;BME280;34202;52.536;6.042;2023-07-09T19:55:40;101991.05;;;21.67;90.88
48404;BME280;34202;52.536;6.042;2023-07-09T20:00:40;101986.43;;;21.59;90.96
48404;BME280;34202;52.536;6.042;2023-07-09T20:05:40;101977.36;;;21.43;91.03
48404;BME280;34202;52.536;6.042;2023-07-09T20:10:41;101979.55;;;21.30;91.51
48404;BME280;34202;52.536;6.042;2023-07-09T20:15:42;101983.77;;;21.14;91.96
48404;BME280;34202;52.536;6.042;2023-07-09T20:20:46;101987.71;;;21.02;92.69
48404;BME280;34202;52.536;6.042;2023-07-09T20:25:47;101972.47;;;21.03;93.48
48404;BME280;34202;52.536;6.042;2023-07-09T20:30:50;101981.92;;;20.98;93.81
48404;BME280;34202;52.536;6.042;2023-07-09T20:35:51;101998.50;;;21.02;94.26
48404;BME280;34202;52.536;6.042;2023-07-09T20:40:52;101997.84;;;21.09;94.50
48404;BME280;34202;52.536;6.042;2023-07-09T20:45:53;102019.35;;;21.13;94.16
48404;BME280;34202;52.536;6.042;2023-07-09T20:50:54;102017.00;;;21.16;94.06
48404;BME280;34202;52.536;6.042;2023-07-09T20:55:57;102005.30;;;21.17;94.28
48404;BME280;34202;52.536;6.042;2023-07-09T21:00:58;102005.99;;;21.18;94.52
48404;BME280;34202;52.536;6.042;2023-07-09T21:05:58;102015.09;;;21.15;94.35
48404;BME280;34202;52.536;6.042;2023-07-09T21:10:59;102018.69;;;21.11;94.21
48404;BME280;34202;52.536;6.042;2023-07-09T21:15:59;102024.23;;;21.08;94.00
48404;BME280;34202;52.536;6.042;2023-07-09T21:21:02;102019.29;;;21.08;94.20
48404;BME280;34202;52.536;6.042;2023-07-09T21:26:02;102024.64;;;21.05;94.32
48404;BME280;34202;52.536;6.042;2023-07-09T21:31:03;102025.56;;;21.03;94.34
48404;BME280;34202;52.536;6.042;2023-07-09T21:36:04;102024.70;;;21.02;94.32
48404;BME280;34202;52.536;6.042;2023-07-09T21:41:04;102029.52;;;20.99;94.45
48404;BME280;34202;52.536;6.042;2023-07-09T21:46:13;102028.55;;;20.94;94.29
48404;BME280;34202;52.536;6.042;2023-07-09T21:51:19;102032.03;;;20.87;94.62
48404;BME280;34202;52.536;6.042;2023-07-09T21:56:19;102045.38;;;20.83;94.71
48404;BME280;34202;52.536;6.042;2023-07-09T22:01:20;102035.86;;;20.80;94.83
48404;BME280;34202;52.536;6.042;2023-07-09T22:06:20;102035.23;;;20.75;95.17
48404;BME280;34202;52.536;6.042;2023-07-09T22:11:25;102042.73;;;20.72;95.47
48404;BME280;34202;52.536;6.042;2023-07-09T22:16:27;102056.60;;;20.67;95.64
48404;BME280;34202;52.536;6.042;2023-07-09T22:21:28;102058.27;;;20.62;95.87
48404;BME280;34202;52.536;6.042;2023-07-09T22:26:30;102059.52;;;20.58;95.79
48404;BME280;34202;52.536;6.042;2023-07-09T22:31:32;102060.46;;;20.55;96.09
48404;BME280;34202;52.536;6.042;2023-07-09T22:36:32;102070.95;;;20.52;96.15
48404;BME280;34202;52.536;6.042;2023-07-09T22:41:33;102068.52;;;20.48;96.53
48404;BME280;34202;52.536;6.042;2023-07-09T22:46:33;102067.02;;;20.42;96.59
48404;BME280;34202;52.536;6.042;2023-07-09T22:51:34;102068.33;;;20.39;96.71
48404;BME280;34202;52.536;6.042;2023-07-09T22:56:35;102058.13;;;20.35;97.01
48404;BME280;34202;52.536;6.042;2023-07-09T23:01:36;102061.34;;;20.33;97.25
48404;BME280;34202;52.536;6.042;2023-07-09T23:06:37;102059.39;;;20.33;97.26
48404;BME280;34202;52.536;6.042;2023-07-09T23:11:42;102064.20;;;20.30;97.65
48404;BME280;34202;52.536;6.042;2023-07-09T23:16:43;102063.37;;;20.26;98.19
48404;BME280;34202;52.536;6.042;2023-07-09T23:21:46;102057.21;;;20.24;98.49
48404;BME280;34202;52.536;6.042;2023-07-09T23:26:49;102052.84;;;20.22;98.82
48404;BME280;34202;52.536;6.042;2023-07-09T23:31:50;102050.41;;;20.18;99.12
48404;BME280;34202;52.536;6.042;2023-07-09T23:36:50;102055.77;;;20.14;99.30
48404;BME280;34202;52.536;6.042;2023-07-09T23:41:52;102059.50;;;20.12;99.81
48404;BME280;34202;52.536;6.042;2023-07-09T23:46:56;102067.67;;;20.10;100.00
48404;BME280;34202;52.536;6.042;2023-07-09T23:51:57;102063.25;;;20.09;100.00
48404;BME280;34202;52.536;6.042;2023-07-09T23:56:57;102060.08;;;20.08;100.00
